sensor_id;sensor_type;location;lat;lon;timestamp;pressure;altitude;pressure_sealevel;temperature;humidity
44992;BME280;56865;51.618;7.406;2023-05-23T00:00:31;100846.19;;;34.20;66.96
44992;BME280;56865;51.618;7.406;2023-05-23T00:03:02;100850.56;;;33.95;67.40
44992;BME280;56865;51.618;7.406;2023-05-23T00:05:33;100853.66;;;33.75;66.38
44992;BME280;56865;51.618;7.406;2023-05-23T00:08:03;100845.66;;;34.02;67.03
44992;BME280;56865;51.618;7.406;2023-05-23T00:10:35;100853.81;;;33.86;67.64
44992;BME280;56865;51.618;7.406;2023-05-23T00:13:05;100860.06;;;33.45;68.67
44992;BME280;56865;51.618;7.406;2023-05-23T00:15:38;100862.53;;;33.61;66.39
44992;BME280;56865;51.618;7.406;2023-05-23T00:18:08;100867.78;;;33.48;66.14
44992;BME280;56865;51.618;7.406;2023-05-23T00:20:40;100865.50;;;33.69;66.08
44992;BME280;56865;51.618;7.406;2023-05-23T00:23:11;100878.91;;;33.53;67.13
44992;BME280;56865;51.618;7.406;2023-05-23T00:25:48;100870.31;;;33.90;64.65
44992;BME280;56865;51.618;7.406;2023-05-23T00:28:19;100879.81;;;33.79;65.14
44992;BME280;56865;51.618;7.406;2023-05-23T00:30:49;100877.56;;;33.73;65.79
44992;BME280;56865;51.618;7.406;2023-05-23T00:33:19;100878.63;;;33.70;65.10
44992;BME280;56865;51.618;7.406;2023-05-23T00:35:49;100880.09;;;33.62;65.52
44992;BME280;56865;51.618;7.406;2023-05-23T00:38:20;100886.66;;;33.56;65.45
44992;BME280;56865;51.618;7.406;2023-05-23T00:40:52;100884.41;;;33.90;64.40
44992;BME280;56865;51.618;7.406;2023-05-23T00:43:22;100889.44;;;33.80;64.32
44992;BME280;56865;51.618;7.406;2023-05-23T00:45:52;100893.94;;;33.93;64.88
44992;BME280;56865;51.618;7.406;2023-05-23T00:48:22;100888.69;;;33.78;64.26
44992;BME280;56865;51.618;7.406;2023-05-23T00:50:53;100889.34;;;33.82;63.11
44992;BME280;56865;51.618;7.406;2023-05-23T00:53:24;100888.84;;;33.90;64.57
44992;BME280;56865;51.618;7.406;2023-05-23T00:55:57;100905.34;;;34.06;63.80
44992;BME280;56865;51.618;7.406;2023-05-23T00:58:27;100892.44;;;34.14;65.72
44992;BME280;56865;51.618;7.406;2023-05-23T01:00:58;100902.47;;;33.83;63.55
44992;BME280;56865;51.618;7.406;2023-05-23T01:03:28;100905.78;;;34.13;64.54
44992;BME280;56865;51.618;7.406;2023-05-23T01:05:58;100907.16;;;33.93;66.41
44992;BME280;56865;51.618;7.406;2023-05-23T01:08:28;100903.59;;;33.39;64.39
44992;BME280;56865;51.618;7.406;2023-05-23T01:11:04;100905.16;;;33.56;68.31
44992;BME280;56865;51.618;7.406;2023-05-23T01:13:41;100901.94;;;33.51;64.95
44992;BME280;56865;51.618;7.406;2023-05-23T01:16:13;100906.34;;;33.65;66.06
44992;BME280;56865;51.618;7.406;2023-05-23T01:18:52;100910.47;;;33.42;65.00
44992;BME280;56865;51.618;7.406;2023-05-23T01:21:25;100909.53;;;33.70;66.28
44992;BME280;56865;51.618;7.406;2023-05-23T01:24:10;100905.00;;;33.45;65.60
44992;BME280;56865;51.618;7.406;2023-05-23T01:27:00;100900.66;;;33.44;64.72
44992;BME280;56865;51.618;7.406;2023-05-23T01:29:38;100903.91;;;33.75;64.42
44992;BME280;56865;51.618;7.406;2023-05-23T01:32:11;100892.94;;;33.41;67.06
44992;BME280;56865;51.618;7.406;2023-05-23T01:34:43;100903.03;;;33.61;65.50
44992;BME280;56865;51.618;7.406;2023-05-23T01:37:14;100895.13;;;33.19;64.40
44992;BME280;56865;51.618;7.406;2023-05-23T01:39:47;100899.38;;;33.36;66.34
44992;BME280;56865;51.618;7.406;2023-05-23T01:42:17;100892.28;;;33.37;65.25
44992;BME280;56865;51.618;7.406;2023-05-23T01:44:50;100901.22;;;33.49;65.47
44992;BME280;56865;51.618;7.406;2023-05-23T01:47:21;100897.31;;;33.27;65.69
44992;BME280;56865;51.618;7.406;2023-05-23T01:49:52;100900.97;;;33.39;65.50
44992;BME280;56865;51.618;7.406;2023-05-23T01:52:22;100901.47;;;33.59;66.15
44992;BME280;56865;51.618;7.406;2023-05-23T01:54:53;100907.50;;;33.33;66.26
44992;BME280;56865;51.618;7.406;2023-05-23T01:57:25;100907.97;;;33.53;66.90
44992;BME280;56865;51.618;7.406;2023-05-23T01:59:58;100905.59;;;33.35;66.46
44992;BME280;56865;51.618;7.406;2023-05-23T02:02:29;100904.44;;;33.40;66.50
44992;BME280;56865;51.618;7.406;2023-05-23T02:04:59;100909.25;;;33.47;65.43
44992;BME280;56865;51.618;7.406;2023-05-23T02:07:30;100907.94;;;33.40;65.77
44992;BME280;56865;51.618;7.406;2023-05-23T02:10:00;100908.94;;;33.52;66.54
44992;BME280;56865;51.618;7.406;2023-05-23T02:12:30;100908.97;;;33.65;67.56
44992;BME280;56865;51.618;7.406;2023-05-23T02:15:03;100911.28;;;33.29;68.71
44992;BME280;56865;51.618;7.406;2023-05-23T02:17:33;100907.81;;;33.69;67.26
44992;BME280;56865;51.618;7.406;2023-05-23T02:20:06;100914.06;;;33.41;66.40
44992;BME280;56865;51.618;7.406;2023-05-23T02:22:37;100912.72;;;33.48;65.64
44992;BME280;56865;51.618;7.406;2023-05-23T02:25:07;100908.34;;;33.61;66.72
44992;BME280;56865;51.618;7.406;2023-05-23T02:27:37;100907.88;;;33.27;66.15
44992;BME280;56865;51.618;7.406;2023-05-23T02:30:11;100914.56;;;33.60;68.26
44992;BME280;56865;51.618;7.406;2023-05-23T02:32:41;100919.63;;;33.63;68.22
44992;BME280;56865;51.618;7.406;2023-05-23T02:35:23;100925.16;;;33.73;66.13
44992;BME280;56865;51.618;7.406;2023-05-23T02:38:34;100930.97;;;33.38;66.27
44992;BME280;56865;51.618;7.406;2023-05-23T02:41:36;100921.22;;;33.11;67.15
44992;BME280;56865;51.618;7.406;2023-05-23T02:44:38;100924.31;;;33.32;67.25
44992;BME280;56865;51.618;7.406;2023-05-23T02:51:12;100924.00;;;33.37;69.11
44992;BME280;56865;51.618;7.406;2023-05-23T02:53:46;100927.44;;;33.52;67.31
44992;BME280;56865;51.618;7.406;2023-05-23T02:56:16;100921.50;;;33.48;66.37
44992;BME280;56865;51.618;7.406;2023-05-23T02:58:53;100928.28;;;33.52;66.85
44992;BME280;56865;51.618;7.406;2023-05-23T03:01:23;100933.00;;;33.75;67.18
44992;BME280;56865;51.618;7.406;2023-05-23T03:03:56;100934.78;;;33.61;68.07
44992;BME280;56865;51.618;7.406;2023-05-23T03:06:26;100933.16;;;33.86;67.40
44992;BME280;56865;51.618;7.406;2023-05-23T03:08:58;100939.19;;;33.61;68.01
44992;BME280;56865;51.618;7.406;2023-05-23T03:11:27;100939.16;;;33.75;69.64
44992;BME280;56865;51.618;7.406;2023-05-23T03:13:58;100934.47;;;33.38;68.39
44992;BME280;56865;51.618;7.406;2023-05-23T03:16:28;100942.88;;;33.58;67.06
44992;BME280;56865;51.618;7.406;2023-05-23T03:19:01;100936.56;;;33.19;67.27
44992;BME280;56865;51.618;7.406;2023-05-23T03:21:31;100940.72;;;33.23;66.84
44992;BME280;56865;51.618;7.406;2023-05-23T03:24:01;100939.81;;;33.51;67.70
44992;BME280;56865;51.618;7.406;2023-05-23T03:26:31;100946.72;;;33.67;67.44
44992;BME280;56865;51.618;7.406;2023-05-23T03:29:02;100951.75;;;33.57;68.20
44992;BME280;56865;51.618;7.406;2023-05-23T03:31:32;100946.09;;;33.36;67.00
44992;BME280;56865;51.618;7.406;2023-05-23T03:34:05;100951.44;;;33.49;67.36
44992;BME280;56865;51.618;7.406;2023-05-23T03:36:35;100956.00;;;33.60;68.45
44992;BME280;56865;51.618;7.406;2023-05-23T03:39:05;100952.22;;;33.36;68.23
44992;BME280;56865;51.618;7.406;2023-05-23T03:41:35;100946.41;;;32.73;68.54
44992;BME280;56865;51.618;7.406;2023-05-23T03:44:05;100946.31;;;33.18;67.55
44992;BME280;56865;51.618;7.406;2023-05-23T03:46:35;100957.47;;;32.95;67.20
44992;BME280;56865;51.618;7.406;2023-05-23T03:49:08;100952.09;;;32.96;67.43
44992;BME280;56865;51.618;7.406;2023-05-23T03:51:38;100957.56;;;32.64;69.49
44992;BME280;56865;51.618;7.406;2023-05-23T03:54:08;100964.50;;;33.23;67.75
44992;BME280;56865;51.618;7.406;2023-05-23T03:56:39;100974.50;;;33.18;67.16
44992;BME280;56865;51.618;7.406;2023-05-23T03:59:09;100962.06;;;33.05;69.53
44992;BME280;56865;51.618;7.406;2023-05-23T04:01:39;100969.06;;;32.78;68.99
44992;BME280;56865;51.618;7.406;2023-05-23T04:04:12;100970.97;;;33.04;68.33
44992;BME280;56865;51.618;7.406;2023-05-23T04:06:43;100974.34;;;32.63;71.39
44992;BME280;56865;51.618;7.406;2023-05-23T04:09:13;100986.03;;;32.73;69.11
44992;BME280;56865;51.618;7.406;2023-05-23T04:11:44;100979.53;;;32.94;68.38
44992;BME280;56865;51.618;7.406;2023-05-23T04:14:14;100974.09;;;32.82;69.98
44992;BME280;56865;51.618;7.406;2023-05-23T04:16:46;100977.75;;;32.94;68.60
44992;BME280;56865;51.618;7.406;2023-05-23T04:19:18;100971.06;;;32.88;67.99
44992;BME280;56865;51.618;7.406;2023-05-23T04:21:49;100980.09;;;32.99;68.73
44992;BME280;56865;51.618;7.406;2023-05-23T04:24:19;100974.47;;;32.76;67.60
44992;BME280;56865;51.618;7.406;2023-05-23T04:26:49;100975.13;;;32.80;67.94
44992;BME280;56865;51.618;7.406;2023-05-23T04:29:22;100979.25;;;32.84;68.15
44992;BME280;56865;51.618;7.406;2023-05-23T04:31:52;100988.47;;;33.05;67.88
44992;BME280;56865;51.618;7.406;2023-05-23T04:34:25;100989.34;;;33.06;69.07
44992;BME280;56865;51.618;7.406;2023-05-23T04:36:57;100992.53;;;32.53;67.71
44992;BME280;56865;51.618;7.406;2023-05-23T04:39:27;100995.16;;;32.68;67.77
44992;BME280;56865;51.618;7.406;2023-05-23T04:41:58;100992.16;;;32.60;69.94
44992;BME280;56865;51.618;7.406;2023-05-23T04:44:28;100990.38;;;33.03;68.25
44992;BME280;56865;51.618;7.406;2023-05-23T04:46:59;100998.88;;;33.09;67.22
44992;BME280;56865;51.618;7.406;2023-05-23T04:49:34;101000.84;;;33.05;68.18
44992;BME280;56865;51.618;7.406;2023-05-23T04:52:05;100996.53;;;32.89;69.65
44992;BME280;56865;51.618;7.406;2023-05-23T04:54:35;100995.28;;;33.10;70.29
44992;BME280;56865;51.618;7.406;2023-05-23T04:57:10;100998.78;;;32.81;68.68
44992;BME280;56865;51.618;7.406;2023-05-23T04:59:41;101003.59;;;32.75;68.84
44992;BME280;56865;51.618;7.406;2023-05-23T05:02:12;100999.50;;;32.69;70.66
44992;BME280;56865;51.618;7.406;2023-05-23T05:04:45;101002.81;;;32.58;68.66
44992;BME280;56865;51.618;7.406;2023-05-23T05:07:15;101007.72;;;32.64;70.63
44992;BME280;56865;51.618;7.406;2023-05-23T05:09:45;101010.78;;;32.87;67.96
44992;BME280;56865;51.618;7.406;2023-05-23T05:12:15;101022.28;;;33.15;68.44
44992;BME280;56865;51.618;7.406;2023-05-23T05:14:45;101024.91;;;32.86;67.93
44992;BME280;56865;51.618;7.406;2023-05-23T05:17:15;101018.31;;;32.93;67.25
44992;BME280;56865;51.618;7.406;2023-05-23T05:19:48;101025.94;;;32.98;68.43
44992;BME280;56865;51.618;7.406;2023-05-23T05:22:18;101024.63;;;32.76;68.15
44992;BME280;56865;51.618;7.406;2023-05-23T05:24:49;101032.66;;;33.03;68.09
44992;BME280;56865;51.618;7.406;2023-05-23T05:27:19;101028.69;;;32.51;68.80
44992;BME280;56865;51.618;7.406;2023-05-23T05:29:49;101038.31;;;32.97;68.87
44992;BME280;56865;51.618;7.406;2023-05-23T05:32:19;101043.31;;;33.16;68.64
44992;BME280;56865;51.618;7.406;2023-05-23T05:34:52;101040.94;;;33.26;66.86
44992;BME280;56865;51.618;7.406;2023-05-23T05:37:23;101049.81;;;32.96;67.91
44992;BME280;56865;51.618;7.406;2023-05-23T05:39:53;101046.59;;;33.05;67.93
44992;BME280;56865;51.618;7.406;2023-05-23T05:42:23;101048.78;;;32.84;68.74
44992;BME280;56865;51.618;7.406;2023-05-23T05:44:53;101051.00;;;32.62;68.52
44992;BME280;56865;51.618;7.406;2023-05-23T05:47:23;101045.19;;;32.40;68.16
44992;BME280;56865;51.618;7.406;2023-05-23T05:49:56;101052.97;;;32.72;69.32
44992;BME280;56865;51.618;7.406;2023-05-23T05:52:26;101049.25;;;32.91;67.98
44992;BME280;56865;51.618;7.406;2023-05-23T05:54:56;101055.38;;;32.92;66.80
44992;BME280;56865;51.618;7.406;2023-05-23T05:57:26;101061.50;;;33.06;69.04
44992;BME280;56865;51.618;7.406;2023-05-23T05:59:56;101070.22;;;32.64;69.62
44992;BME280;56865;51.618;7.406;2023-05-23T06:02:26;101065.78;;;32.34;68.76
44992;BME280;56865;51.618;7.406;2023-05-23T06:04:59;101072.75;;;32.51;68.51
44992;BME280;56865;51.618;7.406;2023-05-23T06:07:29;101063.59;;;32.56;68.06
44992;BME280;56865;51.618;7.406;2023-05-23T06:09:59;101061.41;;;32.49;67.82
44992;BME280;56865;51.618;7.406;2023-05-23T06:12:29;101068.44;;;32.64;70.22
44992;BME280;56865;51.618;7.406;2023-05-23T06:14:59;101073.31;;;32.70;67.49
44992;BME280;56865;51.618;7.406;2023-05-23T06:17:29;101075.19;;;32.84;67.70
44992;BME280;56865;51.618;7.406;2023-05-23T06:20:01;101071.88;;;32.50;68.46
44992;BME280;56865;51.618;7.406;2023-05-23T06:22:32;101080.41;;;32.70;68.96
44992;BME280;56865;51.618;7.406;2023-05-23T06:25:04;101082.56;;;32.63;69.11
44992;BME280;56865;51.618;7.406;2023-05-23T06:27:35;101084.28;;;32.64;69.96
44992;BME280;56865;51.618;7.406;2023-05-23T06:30:06;101087.84;;;32.63;69.02
44992;BME280;56865;51.618;7.406;2023-05-23T06:32:36;101091.75;;;32.72;70.46
44992;BME280;56865;51.618;7.406;2023-05-23T06:35:09;101097.44;;;32.50;70.09
44992;BME280;56865;51.618;7.406;2023-05-23T06:37:39;101087.56;;;32.37;71.91
44992;BME280;56865;51.618;7.406;2023-05-23T06:40:11;101093.06;;;32.34;69.29
44992;BME280;56865;51.618;7.406;2023-05-23T06:42:41;101096.63;;;32.33;70.06
44992;BME280;56865;51.618;7.406;2023-05-23T06:45:11;101103.31;;;32.39;69.57
44992;BME280;56865;51.618;7.406;2023-05-23T06:47:42;101099.28;;;32.01;70.48
44992;BME280;56865;51.618;7.406;2023-05-23T06:50:16;101104.81;;;32.13;72.34
44992;BME280;56865;51.618;7.406;2023-05-23T06:52:47;101103.53;;;31.88;69.62
44992;BME280;56865;51.618;7.406;2023-05-23T06:55:17;101108.19;;;32.47;69.19
44992;BME280;56865;51.618;7.406;2023-05-23T06:57:47;101113.97;;;32.37;69.46
44992;BME280;56865;51.618;7.406;2023-05-23T07:00:18;101118.28;;;32.24;69.32
44992;BME280;56865;51.618;7.406;2023-05-23T07:02:48;101124.72;;;32.34;69.94
44992;BME280;56865;51.618;7.406;2023-05-23T07:05:21;101127.59;;;32.46;67.30
44992;BME280;56865;51.618;7.406;2023-05-23T07:07:51;101132.22;;;32.56;68.11
44992;BME280;56865;51.618;7.406;2023-05-23T07:10:21;101130.81;;;32.35;68.78
44992;BME280;56865;51.618;7.406;2023-05-23T07:12:52;101145.69;;;32.21;69.28
44992;BME280;56865;51.618;7.406;2023-05-23T07:15:22;101141.41;;;32.19;69.65
44992;BME280;56865;51.618;7.406;2023-05-23T07:17:52;101126.31;;;31.73;69.28
44992;BME280;56865;51.618;7.406;2023-05-23T07:20:27;101140.88;;;32.12;69.58
44992;BME280;56865;51.618;7.406;2023-05-23T07:22:56;101145.47;;;32.08;68.86
44992;BME280;56865;51.618;7.406;2023-05-23T07:25:26;101150.91;;;32.37;67.45
44992;BME280;56865;51.618;7.406;2023-05-23T07:27:56;101155.09;;;32.09;67.85
44992;BME280;56865;51.618;7.406;2023-05-23T07:30:26;101150.56;;;31.96;68.95
44992;BME280;56865;51.618;7.406;2023-05-23T07:32:57;101158.81;;;32.37;68.72
44992;BME280;56865;51.618;7.406;2023-05-23T07:35:30;101156.44;;;32.17;66.33
44992;BME280;56865;51.618;7.406;2023-05-23T07:38:00;101157.00;;;32.54;67.67
44992;BME280;56865;51.618;7.406;2023-05-23T07:40:32;101163.38;;;32.35;67.22
44992;BME280;56865;51.618;7.406;2023-05-23T07:43:04;101160.72;;;32.19;68.44
44992;BME280;56865;51.618;7.406;2023-05-23T07:45:34;101168.03;;;32.14;66.43
44992;BME280;56865;51.618;7.406;2023-05-23T07:48:03;101170.75;;;32.29;70.14
44992;BME280;56865;51.618;7.406;2023-05-23T07:50:36;101168.47;;;32.06;67.38
44992;BME280;56865;51.618;7.406;2023-05-23T07:53:06;101173.81;;;32.53;67.06
44992;BME280;56865;51.618;7.406;2023-05-23T07:55:36;101174.56;;;32.39;67.47
44992;BME280;56865;51.618;7.406;2023-05-23T07:58:05;101182.38;;;32.56;69.22
44992;BME280;56865;51.618;7.406;2023-05-23T08:00:35;101180.38;;;32.46;69.25
44992;BME280;56865;51.618;7.406;2023-05-23T08:03:07;101190.50;;;32.37;66.50
44992;BME280;56865;51.618;7.406;2023-05-23T08:05:39;101187.69;;;32.40;67.45
44992;BME280;56865;51.618;7.406;2023-05-23T08:08:09;101190.66;;;32.18;65.80
44992;BME280;56865;51.618;7.406;2023-05-23T08:10:39;101193.81;;;32.57;67.39
44992;BME280;56865;51.618;7.406;2023-05-23T08:13:11;101198.41;;;32.37;67.70
44992;BME280;56865;51.618;7.406;2023-05-23T08:15:42;101199.25;;;32.54;68.51
44992;BME280;56865;51.618;7.406;2023-05-23T08:18:11;101195.56;;;32.72;66.18
44992;BME280;56865;51.618;7.406;2023-05-23T08:20:47;101199.25;;;32.54;68.56
44992;BME280;56865;51.618;7.406;2023-05-23T08:23:17;101204.31;;;32.27;67.07
44992;BME280;56865;51.618;7.406;2023-05-23T08:25:47;101213.41;;;32.53;67.09
44992;BME280;56865;51.618;7.406;2023-05-23T08:28:16;101210.47;;;32.57;65.81
44992;BME280;56865;51.618;7.406;2023-05-23T08:30:46;101207.44;;;32.49;66.21
44992;BME280;56865;51.618;7.406;2023-05-23T08:33:17;101215.56;;;32.77;67.78
44992;BME280;56865;51.618;7.406;2023-05-23T08:35:49;101222.06;;;32.39;68.19
44992;BME280;56865;51.618;7.406;2023-05-23T08:38:19;101226.84;;;32.32;66.91
44992;BME280;56865;51.618;7.406;2023-05-23T08:40:50;101220.78;;;32.46;68.98
44992;BME280;56865;51.618;7.406;2023-05-23T08:43:20;101232.50;;;32.08;65.73
44992;BME280;56865;51.618;7.406;2023-05-23T08:45:50;101231.88;;;31.54;67.11
44992;BME280;56865;51.618;7.406;2023-05-23T08:48:20;101226.22;;;31.26;70.67
44992;BME280;56865;51.618;7.406;2023-05-23T08:50:54;101236.00;;;31.93;71.03
44992;BME280;56865;51.618;7.406;2023-05-23T08:53:24;101242.97;;;31.94;70.38
44992;BME280;56865;51.618;7.406;2023-05-23T08:55:55;101247.22;;;31.63;67.99
44992;BME280;56865;51.618;7.406;2023-05-23T08:58:28;101247.13;;;31.98;67.01
44992;BME280;56865;51.618;7.406;2023-05-23T09:00:59;101252.88;;;32.06;68.20
44992;BME280;56865;51.618;7.406;2023-05-23T09:03:29;101240.97;;;32.15;65.48
44992;BME280;56865;51.618;7.406;2023-05-23T09:06:02;101245.31;;;32.32;65.74
44992;BME280;56865;51.618;7.406;2023-05-23T09:08:32;101249.00;;;32.46;65.75
44992;BME280;56865;51.618;7.406;2023-05-23T09:11:02;101258.84;;;32.26;65.97
44992;BME280;56865;51.618;7.406;2023-05-23T09:13:32;101252.19;;;32.19;65.06
44992;BME280;56865;51.618;7.406;2023-05-23T09:16:04;101258.41;;;32.18;68.90
44992;BME280;56865;51.618;7.406;2023-05-23T09:18:35;101267.03;;;31.88;65.79
44992;BME280;56865;51.618;7.406;2023-05-23T09:21:09;101271.38;;;31.89;65.14
44992;BME280;56865;51.618;7.406;2023-05-23T09:23:39;101277.56;;;31.88;64.16
44992;BME280;56865;51.618;7.406;2023-05-23T09:26:10;101279.72;;;31.97;64.47
44992;BME280;56865;51.618;7.406;2023-05-23T09:28:40;101284.28;;;31.77;64.69
44992;BME280;56865;51.618;7.406;2023-05-23T09:31:11;101286.00;;;31.95;64.52
44992;BME280;56865;51.618;7.406;2023-05-23T09:33:42;101291.50;;;31.90;64.56
44992;BME280;56865;51.618;7.406;2023-05-23T09:36:15;101295.03;;;32.24;64.13
44992;BME280;56865;51.618;7.406;2023-05-23T09:38:46;101299.09;;;31.96;63.41
44992;BME280;56865;51.618;7.406;2023-05-23T09:41:18;101298.69;;;32.37;65.10
44992;BME280;56865;51.618;7.406;2023-05-23T09:43:48;101299.28;;;31.93;63.85
44992;BME280;56865;51.618;7.406;2023-05-23T09:46:19;101297.16;;;32.00;62.79
44992;BME280;56865;51.618;7.406;2023-05-23T09:48:49;101300.50;;;32.37;65.85
44992;BME280;56865;51.618;7.406;2023-05-23T09:51:23;101305.09;;;32.49;67.04
44992;BME280;56865;51.618;7.406;2023-05-23T09:53:54;101304.91;;;32.20;67.38
44992;BME280;56865;51.618;7.406;2023-05-23T09:56:23;101312.41;;;32.11;64.22
44992;BME280;56865;51.618;7.406;2023-05-23T09:58:55;101310.09;;;31.71;62.64
44992;BME280;56865;51.618;7.406;2023-05-23T10:01:27;101318.53;;;31.60;66.03
44992;BME280;56865;51.618;7.406;2023-05-23T10:03:57;101317.81;;;31.56;63.13
44992;BME280;56865;51.618;7.406;2023-05-23T10:06:31;101322.56;;;31.50;64.15
44992;BME280;56865;51.618;7.406;2023-05-23T10:09:03;101325.50;;;31.43;64.21
44992;BME280;56865;51.618;7.406;2023-05-23T10:14:19;101323.81;;;31.42;66.15
44992;BME280;56865;51.618;7.406;2023-05-23T10:16:52;101330.94;;;31.75;63.44
44992;BME280;56865;51.618;7.406;2023-05-23T10:19:24;101324.81;;;31.92;64.57
44992;BME280;56865;51.618;7.406;2023-05-23T10:21:58;101325.97;;;31.87;60.61
44992;BME280;56865;51.618;7.406;2023-05-23T10:24:29;101321.91;;;31.64;61.52
44992;BME280;56865;51.618;7.406;2023-05-23T10:26:58;101321.66;;;32.19;62.55
44992;BME280;56865;51.618;7.406;2023-05-23T10:29:28;101325.13;;;32.20;65.21
44992;BME280;56865;51.618;7.406;2023-05-23T10:31:59;101318.94;;;32.21;60.92
44992;BME280;56865;51.618;7.406;2023-05-23T10:34:31;101317.22;;;32.20;66.66
44992;BME280;56865;51.618;7.406;2023-05-23T10:37:07;101323.31;;;32.38;59.77
44992;BME280;56865;51.618;7.406;2023-05-23T10:39:41;101319.63;;;32.24;61.47
44992;BME280;56865;51.618;7.406;2023-05-23T10:42:14;101313.84;;;33.14;61.38
44992;BME280;56865;51.618;7.406;2023-05-23T10:44:45;101319.63;;;32.56;61.11
44992;BME280;56865;51.618;7.406;2023-05-23T10:47:24;101314.31;;;32.90;61.74
44992;BME280;56865;51.618;7.406;2023-05-23T10:49:54;101322.56;;;32.84;59.88
44992;BME280;56865;51.618;7.406;2023-05-23T10:52:26;101318.81;;;32.88;62.40
44992;BME280;56865;51.618;7.406;2023-05-23T10:55:11;101328.97;;;32.30;61.96
44992;BME280;56865;51.618;7.406;2023-05-23T10:57:43;101328.19;;;32.78;61.68
44992;BME280;56865;51.618;7.406;2023-05-23T11:00:14;101332.72;;;32.76;64.57
44992;BME280;56865;51.618;7.406;2023-05-23T11:02:52;101344.50;;;32.52;59.49
44992;BME280;56865;51.618;7.406;2023-05-23T11:05:23;101333.97;;;32.68;64.78
44992;BME280;56865;51.618;7.406;2023-05-23T11:08:09;101349.81;;;32.68;63.65
44992;BME280;56865;51.618;7.406;2023-05-23T11:10:55;101347.00;;;32.71;59.61
44992;BME280;56865;51.618;7.406;2023-05-23T11:16:24;101353.78;;;32.44;61.83
44992;BME280;56865;51.618;7.406;2023-05-23T11:21:41;101352.91;;;32.77;57.27
44992;BME280;56865;51.618;7.406;2023-05-23T11:24:14;101349.47;;;32.90;58.86
44992;BME280;56865;51.618;7.406;2023-05-23T11:26:50;101352.53;;;33.15;59.80
44992;BME280;56865;51.618;7.406;2023-05-23T11:29:20;101354.06;;;33.19;60.80
44992;BME280;56865;51.618;7.406;2023-05-23T11:31:53;101352.34;;;33.18;61.78
44992;BME280;56865;51.618;7.406;2023-05-23T11:34:24;101360.19;;;33.19;56.12
44992;BME280;56865;51.618;7.406;2023-05-23T11:36:53;101358.59;;;32.85;59.71
44992;BME280;56865;51.618;7.406;2023-05-23T11:39:26;101357.97;;;32.64;62.86
44992;BME280;56865;51.618;7.406;2023-05-23T11:41:59;101370.13;;;32.50;58.71
44992;BME280;56865;51.618;7.406;2023-05-23T11:44:29;101367.50;;;32.50;60.62
44992;BME280;56865;51.618;7.406;2023-05-23T11:46:59;101371.19;;;32.64;59.79
44992;BME280;56865;51.618;7.406;2023-05-23T11:49:29;101379.75;;;32.85;59.07
44992;BME280;56865;51.618;7.406;2023-05-23T11:52:00;101373.13;;;32.60;61.84
44992;BME280;56865;51.618;7.406;2023-05-23T11:54:33;101375.16;;;32.55;60.57
44992;BME280;56865;51.618;7.406;2023-05-23T11:57:03;101371.28;;;31.58;62.21
44992;BME280;56865;51.618;7.406;2023-05-23T11:59:33;101374.16;;;32.57;62.57
44992;BME280;56865;51.618;7.406;2023-05-23T12:02:04;101384.44;;;32.80;60.40
44992;BME280;56865;51.618;7.406;2023-05-23T12:04:34;101378.97;;;32.99;56.56
44992;BME280;56865;51.618;7.406;2023-05-23T12:07:04;101373.47;;;33.18;58.54
44992;BME280;56865;51.618;7.406;2023-05-23T12:09:44;101378.19;;;33.13;61.20
44992;BME280;56865;51.618;7.406;2023-05-23T12:12:14;101378.88;;;33.16;56.37
44992;BME280;56865;51.618;7.406;2023-05-23T12:14:46;101382.19;;;33.36;58.01
44992;BME280;56865;51.618;7.406;2023-05-23T12:17:16;101385.75;;;33.19;54.58
44992;BME280;56865;51.618;7.406;2023-05-23T12:19:46;101387.28;;;33.23;53.21
44992;BME280;56865;51.618;7.406;2023-05-23T12:22:20;101389.25;;;33.19;51.32
44992;BME280;56865;51.618;7.406;2023-05-23T12:24:57;101394.97;;;33.28;53.63
44992;BME280;56865;51.618;7.406;2023-05-23T12:27:27;101389.00;;;33.70;53.89
44992;BME280;56865;51.618;7.406;2023-05-23T12:30:04;101386.63;;;33.35;52.11
44992;BME280;56865;51.618;7.406;2023-05-23T12:32:37;101379.94;;;31.97;53.21
44992;BME280;56865;51.618;7.406;2023-05-23T12:35:08;101379.13;;;31.42;58.17
44992;BME280;56865;51.618;7.406;2023-05-23T12:37:42;101386.38;;;33.54;53.33
44992;BME280;56865;51.618;7.406;2023-05-23T12:40:15;101379.53;;;33.97;58.40
44992;BME280;56865;51.618;7.406;2023-05-23T12:42:48;101370.75;;;33.96;59.88
44992;BME280;56865;51.618;7.406;2023-05-23T12:45:18;101372.81;;;33.91;61.53
44992;BME280;56865;51.618;7.406;2023-05-23T12:47:48;101374.56;;;33.76;55.95
44992;BME280;56865;51.618;7.406;2023-05-23T12:50:19;101377.63;;;33.68;53.08
44992;BME280;56865;51.618;7.406;2023-05-23T12:52:49;101365.97;;;33.26;55.33
44992;BME280;56865;51.618;7.406;2023-05-23T12:55:21;101374.91;;;33.40;55.18
44992;BME280;56865;51.618;7.406;2023-05-23T12:57:51;101374.19;;;33.52;59.94
44992;BME280;56865;51.618;7.406;2023-05-23T13:00:21;101373.16;;;33.40;54.21
44992;BME280;56865;51.618;7.406;2023-05-23T13:02:51;101375.84;;;33.85;54.27
44992;BME280;56865;51.618;7.406;2023-05-23T13:05:22;101374.25;;;33.97;51.97
44992;BME280;56865;51.618;7.406;2023-05-23T13:07:53;101371.41;;;34.14;49.69
44992;BME280;56865;51.618;7.406;2023-05-23T13:10:27;101375.41;;;34.22;51.80
44992;BME280;56865;51.618;7.406;2023-05-23T13:12:57;101374.53;;;34.21;49.22
44992;BME280;56865;51.618;7.406;2023-05-23T13:15:27;101376.84;;;34.42;57.41
44992;BME280;56865;51.618;7.406;2023-05-23T13:17:58;101371.72;;;34.53;53.79
44992;BME280;56865;51.618;7.406;2023-05-23T13:20:28;101362.75;;;32.57;53.51
44992;BME280;56865;51.618;7.406;2023-05-23T13:22:58;101363.59;;;32.57;54.93
44992;BME280;56865;51.618;7.406;2023-05-23T13:25:30;101366.78;;;34.61;52.13